createdAt,value
2023-05-08T00:01:16.270Z,9.07
2023-05-08T00:03:43.530Z,9.35
2023-05-08T00:06:10.899Z,9.18
2023-05-08T00:08:37.937Z,9.02
2023-05-08T00:11:04.993Z,9.27
2023-05-08T00:13:32.032Z,8.57
2023-05-08T00:15:59.083Z,9.40
2023-05-08T00:18:26.498Z,8.70
2023-05-08T00:20:53.617Z,8.93
2023-05-08T00:23:22.132Z,9.32
2023-05-08T00:25:49.414Z,9.85
2023-05-08T00:28:16.572Z,9.68
2023-05-08T00:30:43.696Z,8.90
2023-05-08T00:33:11.552Z,9.35
2023-05-08T00:35:41.101Z,9.80
2023-05-08T00:38:08.198Z,10.32
2023-05-08T00:40:35.301Z,10.15
2023-05-08T00:43:02.376Z,10.50
2023-05-08T00:45:33.616Z,10.68
2023-05-08T00:48:00.839Z,11.02
2023-05-08T00:50:27.965Z,10.70
2023-05-08T00:52:58.734Z,10.77
2023-05-08T00:55:25.777Z,9.90
2023-05-08T00:57:53.068Z,11.35
2023-05-08T01:00:21.614Z,10.45
2023-05-08T01:02:48.770Z,10.40
2023-05-08T01:05:15.930Z,11.93
2023-05-08T01:07:43.389Z,11.02
2023-05-08T01:10:11.012Z,11.35
2023-05-08T01:12:38.285Z,10.07
2023-05-08T01:15:28.717Z,10.25
2023-05-08T01:18:05.927Z,10.63
2023-05-08T01:20:36.509Z,10.82
2023-05-08T01:23:18.674Z,10.85
2023-05-08T01:28:32.037Z,10.48
2023-05-08T01:31:18.633Z,11.27
2023-05-08T01:34:06.991Z,11.60
2023-05-08T01:36:52.840Z,11.35
2023-05-08T01:39:22.201Z,10.98
2023-05-08T01:42:01.294Z,11.75
2023-05-08T01:44:31.335Z,11.32
2023-05-08T01:46:59.378Z,10.77
2023-05-08T01:49:35.115Z,10.98
2023-05-08T01:52:08.532Z,11.68
2023-05-08T01:54:39.724Z,11.43
2023-05-08T01:57:08.110Z,12.23
2023-05-08T01:59:36.001Z,11.93
2023-05-08T02:02:03.420Z,11.77
2023-05-08T02:04:31.280Z,11.43
2023-05-08T02:06:59.431Z,12.18
2023-05-08T02:09:27.303Z,11.38
2023-05-08T02:11:55.785Z,10.45
2023-05-08T02:14:23.321Z,12.20
2023-05-08T02:16:51.876Z,11.55
2023-05-08T02:19:20.898Z,11.85
2023-05-08T02:21:49.114Z,11.65
2023-05-08T02:24:16.430Z,11.10
2023-05-08T02:26:44.713Z,11.32
2023-05-08T02:29:11.930Z,11.25
2023-05-08T02:31:39.313Z,11.82
2023-05-08T02:34:07.225Z,11.82
2023-05-08T02:36:35.147Z,11.02
2023-05-08T02:39:02.878Z,11.20
2023-05-08T02:41:31.756Z,10.27
2023-05-08T02:43:59.150Z,11.65
2023-05-08T02:46:40.325Z,11.30
2023-05-08T02:49:24.525Z,11.63
2023-05-08T02:51:55.514Z,11.48
2023-05-08T02:54:26.251Z,11.23
2023-05-08T02:57:02.384Z,11.15
2023-05-08T02:59:32.015Z,10.48
2023-05-08T03:02:07.555Z,10.50
2023-05-08T03:04:41.223Z,10.70
2023-05-08T03:07:08.672Z,11.15
2023-05-08T03:09:46.047Z,10.98
2023-05-08T03:12:17.959Z,10.75
2023-05-08T03:17:13.774Z,11.10
2023-05-08T03:19:42.689Z,11.20
2023-05-08T03:22:10.872Z,11.32
2023-05-08T03:24:39.356Z,11.23
2023-05-08T03:27:06.639Z,11.18
2023-05-08T03:29:34.729Z,13.40
2023-05-08T03:32:02.741Z,10.93
2023-05-08T03:34:30.639Z,10.85
2023-05-08T03:36:57.807Z,11.05
2023-05-08T03:39:26.805Z,10.77
2023-05-08T03:41:54.065Z,10.85
2023-05-08T03:44:21.352Z,11.93
2023-05-08T03:46:50.800Z,11.43
2023-05-08T03:49:18.257Z,12.07
2023-05-08T03:51:45.308Z,11.85
2023-05-08T03:54:12.324Z,11.13
2023-05-08T03:56:39.412Z,12.20
2023-05-08T03:59:14.624Z,11.60
2023-05-08T04:01:49.468Z,11.10
2023-05-08T04:04:21.660Z,12.65
2023-05-08T04:06:50.482Z,11.45
2023-05-08T04:09:20.440Z,11.80
2023-05-08T04:11:53.613Z,11.32
2023-05-08T04:14:21.935Z,10.80
2023-05-08T04:16:50.237Z,11.60
2023-05-08T04:19:24.941Z,11.43
2023-05-08T04:21:55.605Z,10.77
2023-05-08T04:24:23.499Z,10.25
2023-05-08T04:26:50.681Z,11.20
2023-05-08T04:29:18.518Z,10.55
2023-05-08T04:31:46.316Z,11.05
2023-05-08T04:34:13.476Z,9.63
2023-05-08T04:36:40.865Z,10.27
2023-05-08T04:39:07.903Z,10.40
2023-05-08T04:41:35.567Z,9.90
2023-05-08T04:44:03.864Z,10.50
2023-05-08T04:46:31.009Z,10.35
2023-05-08T04:48:58.140Z,10.75
2023-05-08T04:51:25.237Z,10.45
2023-05-08T04:53:52.367Z,10.80
2023-05-08T04:56:19.653Z,11.23
2023-05-08T04:58:46.692Z,10.38
2023-05-08T05:01:13.701Z,10.02
2023-05-08T05:03:40.771Z,9.93
2023-05-08T05:06:07.893Z,10.38
2023-05-08T05:08:34.949Z,9.55
2023-05-08T05:11:02.041Z,9.75
2023-05-08T05:13:29.354Z,10.52
2023-05-08T05:15:56.580Z,9.00
2023-05-08T05:18:23.702Z,9.30
2023-05-08T05:20:50.749Z,8.45
2023-05-08T05:23:17.916Z,8.30
2023-05-08T05:25:44.980Z,7.47
2023-05-08T05:28:12.033Z,6.57
2023-05-08T05:30:39.123Z,5.78
2023-05-08T05:33:06.272Z,6.57
2023-05-08T05:35:33.436Z,6.35
2023-05-08T05:38:00.596Z,6.55
2023-05-08T05:40:27.664Z,6.13
2023-05-08T05:42:54.753Z,6.00
2023-05-08T05:45:21.926Z,6.13
2023-05-08T05:47:50.116Z,6.05
2023-05-08T05:50:18.797Z,6.20
2023-05-08T05:52:46.039Z,5.57
2023-05-08T05:55:13.472Z,6.32
2023-05-08T05:57:40.701Z,5.85
2023-05-08T06:00:08.833Z,5.57
2023-05-08T06:02:37.021Z,5.30
2023-05-08T06:05:04.904Z,5.50
2023-05-08T06:07:32.022Z,5.50
2023-05-08T06:09:59.677Z,5.47
2023-05-08T06:12:28.329Z,4.95
2023-05-08T06:14:55.810Z,6.10
2023-05-08T06:17:23.090Z,5.00
2023-05-08T06:19:53.838Z,5.05
2023-05-08T06:22:24.596Z,5.03
2023-05-08T06:24:54.942Z,5.25
2023-05-08T06:27:22.804Z,5.25
2023-05-08T06:29:53.360Z,5.38
2023-05-08T06:32:21.176Z,4.57
2023-05-08T06:34:48.537Z,4.90
2023-05-08T06:37:15.804Z,4.90
2023-05-08T06:39:42.835Z,5.00
2023-05-08T06:42:10.121Z,4.70
2023-05-08T06:44:37.209Z,5.22
2023-05-08T06:47:04.274Z,4.75
2023-05-08T06:49:31.320Z,4.90
2023-05-08T06:51:58.504Z,5.03
2023-05-08T06:54:25.689Z,4.85
2023-05-08T06:56:55.575Z,4.90
2023-05-08T06:59:25.790Z,5.25
2023-05-08T07:01:52.930Z,5.07
2023-05-08T07:04:20.320Z,5.03
2023-05-08T07:06:47.489Z,4.85
2023-05-08T07:09:15.175Z,5.10
2023-05-08T07:11:42.367Z,4.63
2023-05-08T07:14:09.433Z,5.50
2023-05-08T07:16:37.732Z,5.22
2023-05-08T07:19:04.937Z,5.05
2023-05-08T07:21:32.046Z,4.88
2023-05-08T07:23:59.192Z,4.88
2023-05-08T07:26:26.461Z,5.80
2023-05-08T07:28:54.258Z,5.57
2023-05-08T07:31:21.879Z,5.53
2023-05-08T07:33:48.994Z,4.70
2023-05-08T07:36:16.096Z,5.43
2023-05-08T07:38:43.196Z,5.78
2023-05-08T07:41:10.387Z,5.47
2023-05-08T07:43:38.036Z,5.40
2023-05-08T07:46:05.975Z,6.43
2023-05-08T07:48:33.169Z,5.95
2023-05-08T07:51:00.242Z,5.60
2023-05-08T07:53:27.428Z,6.22
2023-05-08T07:55:54.472Z,5.93
2023-05-08T07:58:23.678Z,5.50
2023-05-08T08:00:51.217Z,6.60
2023-05-08T08:03:18.405Z,6.30
2023-05-08T08:05:45.737Z,5.85
2023-05-08T08:08:12.756Z,6.43
2023-05-08T08:10:39.820Z,6.05
2023-05-08T08:13:07.148Z,6.30
2023-05-08T08:15:34.241Z,6.15
2023-05-08T08:18:01.610Z,6.65
2023-05-08T08:20:28.764Z,6.60
2023-05-08T08:22:55.831Z,5.97
2023-05-08T08:25:22.994Z,5.88
2023-05-08T08:27:50.113Z,6.47
2023-05-08T08:30:18.621Z,6.90
2023-05-08T08:32:46.178Z,7.10
2023-05-08T08:35:13.778Z,6.05
2023-05-08T08:37:41.213Z,6.10
2023-05-08T08:40:08.512Z,7.18
2023-05-08T08:42:35.780Z,6.57
2023-05-08T08:45:03.232Z,6.85
2023-05-08T08:47:33.560Z,7.10
2023-05-08T08:50:03.198Z,7.10
2023-05-08T08:52:36.374Z,7.20
2023-05-08T08:55:05.486Z,7.28
2023-05-08T08:57:33.950Z,6.75
2023-05-08T09:00:04.604Z,7.20
2023-05-08T09:02:32.273Z,6.75
2023-05-08T09:04:59.524Z,6.78
2023-05-08T09:07:27.312Z,6.82
2023-05-08T09:09:54.814Z,6.20
2023-05-08T09:12:21.992Z,6.68
2023-05-08T09:14:49.067Z,6.95
2023-05-08T09:17:16.129Z,6.55
2023-05-08T09:19:43.688Z,6.65
2023-05-08T09:22:11.347Z,6.55
2023-05-08T09:24:57.696Z,6.68
2023-05-08T09:27:25.555Z,6.97
2023-05-08T09:30:09.114Z,6.93
2023-05-08T09:32:37.237Z,6.38
2023-05-08T09:35:04.839Z,6.85
2023-05-08T09:37:31.991Z,6.82
2023-05-08T09:40:15.365Z,6.57
2023-05-08T09:42:42.586Z,7.53
2023-05-08T09:45:09.968Z,6.22
2023-05-08T09:47:40.388Z,6.10
2023-05-08T09:50:08.007Z,6.20
2023-05-08T09:52:36.584Z,6.80
2023-05-08T09:55:10.869Z,6.32
2023-05-08T09:57:39.711Z,7.22
2023-05-08T10:00:07.966Z,7.05
2023-05-08T10:02:35.789Z,6.38
2023-05-08T10:05:04.437Z,6.35
2023-05-08T10:07:38.640Z,6.53
2023-05-08T10:10:07.028Z,6.80
2023-05-08T10:12:34.394Z,7.30
2023-05-08T10:15:01.452Z,7.05
2023-05-08T10:17:38.890Z,7.43
2023-05-08T10:20:07.579Z,7.07
2023-05-08T10:22:37.236Z,7.15
2023-05-08T10:25:05.117Z,7.32
2023-05-08T10:27:35.988Z,7.53
2023-05-08T10:30:04.301Z,7.15
2023-05-08T10:32:34.910Z,6.88
2023-05-08T10:35:03.940Z,6.60
2023-05-08T10:37:31.366Z,7.10
2023-05-08T10:39:59.004Z,7.55
2023-05-08T10:42:26.630Z,7.28
2023-05-08T10:44:54.576Z,7.03
2023-05-08T10:47:45.972Z,7.55
2023-05-08T10:50:29.690Z,8.13
2023-05-08T10:52:59.643Z,7.32
2023-05-08T10:55:37.383Z,6.80
2023-05-08T10:58:07.224Z,7.95
2023-05-08T11:00:54.306Z,6.97
2023-05-08T11:03:31.393Z,7.55
2023-05-08T11:05:59.725Z,7.03
2023-05-08T11:08:27.683Z,7.50
2023-05-08T11:11:01.704Z,7.43
2023-05-08T11:13:28.912Z,7.28
2023-05-08T11:15:56.037Z,6.43
2023-05-08T11:18:26.358Z,6.40
2023-05-08T11:20:57.514Z,7.50
2023-05-08T11:23:24.590Z,7.35
2023-05-08T11:26:01.588Z,6.53
2023-05-08T11:28:32.683Z,6.68
2023-05-08T11:31:07.920Z,7.50
2023-05-08T11:33:40.953Z,7.88
2023-05-08T11:36:08.528Z,7.15
2023-05-08T11:38:38.036Z,6.38
2023-05-08T11:41:05.272Z,6.07
2023-05-08T11:43:37.261Z,6.88
2023-05-08T11:46:05.835Z,7.28
2023-05-08T11:48:33.403Z,6.35
2023-05-08T11:51:00.788Z,5.45
2023-05-08T11:53:28.425Z,6.60
2023-05-08T11:55:55.813Z,7.18
2023-05-08T11:58:23.114Z,6.28
2023-05-08T12:00:50.596Z,6.63
2023-05-08T12:03:19.052Z,7.05
2023-05-08T12:05:46.982Z,6.78
2023-05-08T12:08:15.057Z,6.55
2023-05-08T12:10:49.830Z,6.88
2023-05-08T12:13:18.606Z,6.93
2023-05-08T12:15:49.758Z,6.07
2023-05-08T12:18:17.321Z,6.95
2023-05-08T12:20:44.847Z,7.20
2023-05-08T12:23:12.120Z,6.45
2023-05-08T12:25:39.797Z,6.47
2023-05-08T12:28:07.752Z,6.43
2023-05-08T12:30:34.873Z,5.45
2023-05-08T12:33:02.905Z,5.30
2023-05-08T12:35:30.342Z,5.28
2023-05-08T12:38:03.943Z,5.22
2023-05-08T12:40:35.129Z,7.78
2023-05-08T12:43:02.986Z,7.32
2023-05-08T12:45:42.806Z,7.00
2023-05-08T12:48:11.568Z,7.93
2023-05-08T12:50:40.140Z,8.48
2023-05-08T12:53:11.150Z,7.93
2023-05-08T12:58:07.301Z,9.02
2023-05-08T13:00:39.112Z,9.20
2023-05-08T13:03:07.387Z,9.15
2023-05-08T13:05:36.842Z,8.85
2023-05-08T13:08:10.807Z,10.45
2023-05-08T13:10:47.936Z,9.00
2023-05-08T13:13:15.632Z,9.55
2023-05-08T13:15:43.123Z,9.98
2023-05-08T13:18:10.506Z,9.50
2023-05-08T13:20:37.963Z,9.45
2023-05-08T13:23:05.388Z,9.40
2023-05-08T13:25:33.054Z,9.55
2023-05-08T13:28:00.507Z,9.68
2023-05-08T13:30:28.065Z,9.60
2023-05-08T13:32:55.397Z,9.93
2023-05-08T13:35:22.763Z,10.55
2023-05-08T13:37:50.804Z,11.63
2023-05-08T13:40:18.251Z,11.05
2023-05-08T13:42:45.342Z,9.95
2023-05-08T13:45:16.435Z,10.50
2023-05-08T13:47:43.756Z,10.43
2023-05-08T13:50:11.253Z,10.18
2023-05-08T13:52:38.981Z,10.70
2023-05-08T13:55:10.366Z,10.85
2023-05-08T13:57:37.500Z,11.05
2023-05-08T14:00:05.315Z,12.20
2023-05-08T14:02:32.426Z,12.05
2023-05-08T14:04:59.493Z,11.40
2023-05-08T14:07:28.037Z,12.02
2023-05-08T14:09:55.114Z,11.95
2023-05-08T14:12:22.187Z,12.68
2023-05-08T14:14:49.385Z,14.00
2023-05-08T14:17:16.514Z,12.35
2023-05-08T14:19:43.572Z,11.98
2023-05-08T14:22:10.634Z,11.82
2023-05-08T14:24:37.805Z,11.20
2023-05-08T14:27:06.276Z,11.70
2023-05-08T14:29:34.268Z,11.52
2023-05-08T14:32:01.678Z,9.98
2023-05-08T14:34:29.037Z,9.40
2023-05-08T14:36:56.181Z,9.40
2023-05-08T14:39:23.516Z,8.77
2023-05-08T14:42:14.105Z,8.70
2023-05-08T14:44:37.879Z,9.35
2023-05-08T14:47:05.081Z,10.43
2023-05-08T14:52:19.552Z,9.05
2023-05-08T14:54:52.877Z,9.77
2023-05-08T14:57:20.720Z,10.65
2023-05-08T15:02:37.336Z,11.38
2023-05-08T15:07:51.973Z,10.63
2023-05-08T15:10:19.261Z,10.02
2023-05-08T15:12:46.522Z,9.73
2023-05-08T15:15:13.826Z,9.32
2023-05-08T15:17:41.666Z,9.73
2023-05-08T15:20:09.470Z,9.15
2023-05-08T15:22:37.195Z,9.40
2023-05-08T15:25:06.764Z,8.88
2023-05-08T15:27:33.805Z,10.65
2023-05-08T15:30:00.903Z,10.25
2023-05-08T15:32:27.990Z,11.25
2023-05-08T15:34:55.873Z,11.27
2023-05-08T15:37:23.085Z,10.73
2023-05-08T15:39:50.223Z,10.93
2023-05-08T15:42:18.021Z,10.95
2023-05-08T15:47:15.038Z,10.85
2023-05-08T15:49:42.183Z,9.57
2023-05-08T15:52:09.270Z,9.55
2023-05-08T15:54:36.421Z,10.25
2023-05-08T15:57:03.558Z,9.70
2023-05-08T15:59:30.612Z,10.30
2023-05-08T16:01:57.663Z,11.05
2023-05-08T16:04:24.761Z,10.70
2023-05-08T16:06:51.855Z,10.63
2023-05-08T16:09:18.964Z,11.73
2023-05-08T16:11:46.006Z,12.85
2023-05-08T16:14:13.066Z,12.35
2023-05-08T16:16:41.173Z,12.95
2023-05-08T16:19:08.221Z,13.43
2023-05-08T16:21:36.041Z,14.20
2023-05-08T16:24:03.576Z,14.35
2023-05-08T16:26:30.806Z,15.65
2023-05-08T16:28:57.929Z,15.30
2023-05-08T16:31:25.046Z,15.57
2023-05-08T16:33:52.121Z,16.83
2023-05-08T16:36:19.225Z,18.05
2023-05-08T16:38:46.592Z,17.02
2023-05-08T16:41:14.016Z,17.42
2023-05-08T16:43:41.142Z,17.15
2023-05-08T16:46:08.483Z,16.50
2023-05-08T16:48:35.641Z,16.92
2023-05-08T16:51:02.820Z,17.20
2023-05-08T16:53:31.894Z,16.45
2023-05-08T16:56:00.016Z,16.08
2023-05-08T16:58:27.804Z,17.42
2023-05-08T17:00:54.852Z,16.75
2023-05-08T17:03:22.191Z,16.67
2023-05-08T17:05:49.540Z,17.40
2023-05-08T17:08:17.664Z,16.58
2023-05-08T17:10:44.703Z,18.67
2023-05-08T17:13:11.771Z,18.92
2023-05-08T17:15:39.220Z,17.35
2023-05-08T17:18:06.404Z,18.80
2023-05-08T17:20:40.555Z,19.25
2023-05-08T17:23:07.944Z,19.67
2023-05-08T17:25:35.837Z,19.17
2023-05-08T17:28:03.167Z,18.38
2023-05-08T17:30:31.376Z,19.13
2023-05-08T17:32:59.098Z,19.67
2023-05-08T17:35:26.477Z,18.88
2023-05-08T17:37:53.622Z,19.30
2023-05-08T17:40:20.759Z,18.20
2023-05-08T17:42:47.810Z,19.65
2023-05-08T17:45:14.817Z,19.17
2023-05-08T17:47:42.049Z,19.35
2023-05-08T17:50:09.579Z,19.88
2023-05-08T17:52:36.893Z,19.45
2023-05-08T17:55:04.264Z,18.58
2023-05-08T17:57:31.431Z,19.63
2023-05-08T17:59:58.657Z,19.02
2023-05-08T18:02:25.765Z,19.48
2023-05-08T18:04:52.992Z,19.10
2023-05-08T18:07:20.196Z,19.80
2023-05-08T18:09:47.295Z,19.15
2023-05-08T18:12:14.563Z,18.90
2023-05-08T18:14:43.279Z,19.15
2023-05-08T18:17:12.034Z,19.25
2023-05-08T18:19:39.196Z,18.95
2023-05-08T18:22:06.332Z,19.27
2023-05-08T18:24:33.494Z,19.42
2023-05-08T18:27:00.647Z,18.95
2023-05-08T18:29:27.791Z,20.77
2023-05-08T18:31:54.978Z,19.13
2023-05-08T18:34:22.205Z,19.88
2023-05-08T18:36:50.516Z,21.95
2023-05-08T18:39:17.765Z,19.95
2023-05-08T18:41:44.897Z,20.70
2023-05-08T18:44:12.074Z,21.13
2023-05-08T18:46:40.842Z,21.75
2023-05-08T18:49:08.130Z,22.35
2023-05-08T18:51:35.439Z,22.27
2023-05-08T18:54:02.537Z,21.95
2023-05-08T18:56:29.948Z,22.15
2023-05-08T18:58:57.123Z,23.60
2023-05-08T19:01:24.474Z,23.20
2023-05-08T19:03:51.848Z,22.48
2023-05-08T19:06:19.357Z,23.63
2023-05-08T19:08:47.402Z,22.15
2023-05-08T19:11:14.854Z,23.48
2023-05-08T19:13:42.048Z,23.77
2023-05-08T19:16:09.283Z,24.35
2023-05-08T19:18:36.401Z,23.85
2023-05-08T19:21:03.596Z,22.05
2023-05-08T19:23:30.691Z,24.15
2023-05-08T19:25:57.911Z,23.02
2023-05-08T19:28:25.135Z,22.25
2023-05-08T19:30:52.174Z,22.90
2023-05-08T19:33:22.202Z,23.05
2023-05-08T19:35:49.448Z,23.50
2023-05-08T19:38:16.605Z,23.20
2023-05-08T19:40:55.500Z,25.38
2023-05-08T19:43:24.093Z,23.67
2023-05-08T19:45:51.300Z,25.88
2023-05-08T19:48:20.125Z,24.42
2023-05-08T19:50:47.551Z,25.10
2023-05-08T19:53:14.802Z,22.92
2023-05-08T19:55:42.112Z,23.50
2023-05-08T19:58:09.254Z,22.23
2023-05-08T20:00:36.358Z,23.05
2023-05-08T20:03:03.532Z,22.33
2023-05-08T20:05:31.210Z,21.58
2023-05-08T20:07:58.419Z,21.63
2023-05-08T20:10:25.683Z,24.23
2023-05-08T20:12:52.857Z,24.15
2023-05-08T20:15:20.472Z,24.50
2023-05-08T20:17:47.590Z,24.08
2023-05-08T20:20:14.907Z,25.05
2023-05-08T20:22:42.164Z,24.67
2023-05-08T20:25:09.566Z,23.25
2023-05-08T20:27:36.694Z,22.55
2023-05-08T20:30:03.894Z,24.65
2023-05-08T20:32:31.145Z,25.65
2023-05-08T20:34:58.256Z,26.30
2023-05-08T20:37:25.427Z,27.98
2023-05-08T20:39:52.478Z,27.77
2023-05-08T20:42:19.602Z,28.42
2023-05-08T20:44:46.670Z,28.00
2023-05-08T20:47:13.783Z,29.35
2023-05-08T20:49:40.818Z,27.88
2023-05-08T20:52:07.911Z,28.23
2023-05-08T20:54:34.961Z,29.85
2023-05-08T20:57:02.059Z,29.95
2023-05-08T20:59:29.168Z,29.45
2023-05-08T21:01:56.335Z,29.25
2023-05-08T21:04:23.421Z,29.55
2023-05-08T21:06:52.027Z,31.23
2023-05-08T21:09:19.565Z,28.55
2023-05-08T21:11:46.610Z,31.02
2023-05-08T21:14:13.763Z,28.13
2023-05-08T21:16:41.088Z,28.73
2023-05-08T21:19:09.858Z,28.15
2023-05-08T21:21:36.880Z,27.80
2023-05-08T21:24:04.582Z,28.75
2023-05-08T21:26:31.792Z,27.10
2023-05-08T21:29:00.103Z,26.60
2023-05-08T21:31:28.781Z,26.73
2023-05-08T21:33:55.941Z,28.30
2023-05-08T21:36:22.976Z,27.83
2023-05-08T21:38:50.066Z,28.98
2023-05-08T21:41:17.164Z,27.23
2023-05-08T21:43:44.313Z,27.88
2023-05-08T21:46:11.458Z,28.10
2023-05-08T21:48:38.504Z,28.52
2023-05-08T21:51:06.282Z,29.25
2023-05-08T21:53:33.310Z,28.98
2023-05-08T21:56:00.640Z,26.75
2023-05-08T21:58:27.682Z,28.20
2023-05-08T22:00:56.329Z,28.50
2023-05-08T22:03:25.184Z,28.77
2023-05-08T22:05:52.431Z,27.80
2023-05-08T22:08:19.527Z,27.52
2023-05-08T22:10:46.822Z,28.98
2023-05-08T22:13:14.238Z,28.50
2023-05-08T22:15:41.343Z,29.00
2023-05-08T22:18:08.653Z,29.33
2023-05-08T22:20:35.824Z,28.42
2023-05-08T22:23:02.953Z,28.92
2023-05-08T22:25:30.012Z,26.73
2023-05-08T22:27:57.172Z,24.50
2023-05-08T22:30:24.412Z,23.63
2023-05-08T22:32:57.209Z,25.48
2023-05-08T22:35:25.754Z,25.65
2023-05-08T22:37:53.461Z,25.00
2023-05-08T22:40:21.458Z,25.45
2023-05-08T22:42:48.650Z,24.35
2023-05-08T22:45:16.248Z,25.48
2023-05-08T22:47:43.756Z,24.77
2023-05-08T22:50:11.728Z,25.13
2023-05-08T22:52:39.358Z,25.77
2023-05-08T22:55:07.136Z,26.88
2023-05-08T22:57:34.232Z,25.80
2023-05-08T23:00:01.275Z,27.00
2023-05-08T23:02:35.061Z,25.33
2023-05-08T23:05:02.363Z,26.48
2023-05-08T23:07:30.118Z,26.52
2023-05-08T23:09:57.260Z,26.35
2023-05-08T23:12:24.412Z,26.15
2023-05-08T23:14:51.595Z,25.45
2023-05-08T23:17:18.664Z,25.05
2023-05-08T23:19:45.898Z,26.48
2023-05-08T23:22:13.192Z,26.58
2023-05-08T23:24:40.352Z,23.70
2023-05-08T23:27:07.423Z,25.73
2023-05-08T23:29:34.673Z,24.55
2023-05-08T23:32:01.687Z,25.77
2023-05-08T23:34:28.737Z,24.90
2023-05-08T23:36:55.887Z,23.77
2023-05-08T23:39:22.970Z,25.67
2023-05-08T23:41:50.095Z,25.50
2023-05-08T23:44:18.030Z,26.45
2023-05-08T23:46:45.234Z,24.70
2023-05-08T23:49:12.675Z,26.10
2023-05-08T23:51:39.950Z,22.98
2023-05-08T23:54:07.083Z,24.77
2023-05-08T23:56:34.227Z,23.70
2023-05-08T23:59:01.394Z,23.02
